Marshfield, WI

2:17 AM CST on February 01, 2015 (GMT -0600)
APRSWXNET Hewitt WI US | Change Station
CLOSE
Current Station
Personal Weather Station
Location: Hewitt, WI
Elevation: 1220 ft
Nearby Weather Stations
Active Advisory: Special Statement

Elev 1220 ft 44.64 °N, 90.10 °W | Updated 29 minutes ago

Light Snow
Light Snow
18 °F
Feels Like 10 °F
N
6
Wind Variable Wind from East
Gusts 15.0 mph

Today
High -- | Low -- °F
--% Chance of Precip.
Yesterday
High -- | Low -- °F
Precip. -- in
7:19 AM 5:09 PM
Waxing Gibbous, 94% visible
Pressure 30.19 in
Visibility 4.0 miles
Clouds Scattered Clouds 2000 ft
Overcast 3300 ft
Windchill 10 °F
Dew Point 12 °F
Humidity 78%
Rainfall 0.00 in
Snow Depth Not available.
UV 0 out of 12
Pollen .10 out of 12
Air Quality Not available.
Flu Activity Not available.
SPECI KMFI 010801Z AUTO 07014KT 4SM -SN SCT020 OVC033 M08/M13 A3019 RMK AO2 SNB0756 P0000 T10831128

More Conditions Fewer Conditions

Pressure 30.19 in
Visibility 4.0 miles
Clouds Scattered Clouds 2000 ft
Overcast 3300 ft
Windchill 10 °F
Dew Point 12 °F
Humidity 78%
Rainfall 0.00 in
Snow Depth Not available.
UV 0 out of 12
Pollen .10 out of 12
Air Quality Not available.
Flu Activity Not available.
SPECI KMFI 010801Z AUTO 07014KT 4SM -SN SCT020 OVC033 M08/M13 A3019 RMK AO2 SNB0756 P0000 T10831128

More Conditions Fewer Conditions

10-Day Weather Forecast

Almanac

Astronomy

Feb. 01, 2015 Rise Set
Actual Time
Civil Twilight
Nautical Twilight
Astronomical Twilight
Moon
Length of Visible Light
Length of Day
Tomorrow will be .
, % of the Moon is Illuminated

Today's Extremes

State Highs State Lows

Community

WunderPhotos

Upload Photos

1,792,327 photos uploaded!

WunderBlogs® & News

Nearby

Air Quality

  Air Quality AQ Index Pollutant
Not available.

Snow Depth

Station Depth Elevation

Earthquake Activity

City Distance Mag. Time & Date
Minimum magnitude displayed is 2.5.

Coastal Water Temperatures

Place Temperature

Nearby Weather Stations